sensor_id;sensor_type;location;lat;lon;timestamp;temperature;humidity
6520;DHT22;3293;51.690;5.982;2022-07-29T00:01:15;18.00;85.50
6520;DHT22;3293;51.690;5.982;2022-07-29T00:06:15;18.10;84.60
6520;DHT22;3293;51.690;5.982;2022-07-29T00:11:15;18.10;83.70
6520;DHT22;3293;51.690;5.982;2022-07-29T00:16:15;18.10;83.30
6520;DHT22;3293;51.690;5.982;2022-07-29T00:21:15;18.10;83.20
6520;DHT22;3293;51.690;5.982;2022-07-29T00:26:15;18.10;81.40
6520;DHT22;3293;51.690;5.982;2022-07-29T00:31:15;18.20;82.00
6520;DHT22;3293;51.690;5.982;2022-07-29T00:36:15;18.20;81.70
6520;DHT22;3293;51.690;5.982;2022-07-29T00:41:15;18.10;83.00
6520;DHT22;3293;51.690;5.982;2022-07-29T00:46:16;18.10;83.00
6520;DHT22;3293;51.690;5.982;2022-07-29T00:51:15;18.00;83.60
6520;DHT22;3293;51.690;5.982;2022-07-29T00:56:15;18.00;83.20
6520;DHT22;3293;51.690;5.982;2022-07-29T01:01:15;17.90;85.70
6520;DHT22;3293;51.690;5.982;2022-07-29T01:06:17;17.90;86.70
6520;DHT22;3293;51.690;5.982;2022-07-29T01:11:18;17.80;90.20
6520;DHT22;3293;51.690;5.982;2022-07-29T01:16:31;17.70;91.50
6520;DHT22;3293;51.690;5.982;2022-07-29T01:21:47;17.60;92.20
6520;DHT22;3293;51.690;5.982;2022-07-29T01:32:02;17.60;92.90
6520;DHT22;3293;51.690;5.982;2022-07-29T01:37:24;17.50;99.90
6520;DHT22;3293;51.690;5.982;2022-07-29T01:42:44;17.00;99.90
6520;DHT22;3293;51.690;5.982;2022-07-29T01:53:12;16.20;99.90
6520;DHT22;3293;51.690;5.982;2022-07-29T01:58:15;15.90;99.90
6520;DHT22;3293;51.690;5.982;2022-07-29T02:03:18;15.60;99.90
6520;DHT22;3293;51.690;5.982;2022-07-29T02:08:19;15.50;99.90
6520;DHT22;3293;51.690;5.982;2022-07-29T02:13:20;15.40;99.90
6520;DHT22;3293;51.690;5.982;2022-07-29T02:18:23;15.30;99.90
6520;DHT22;3293;51.690;5.982;2022-07-29T02:23:25;15.40;99.90
6520;DHT22;3293;51.690;5.982;2022-07-29T02:28:27;15.40;99.90
6520;DHT22;3293;51.690;5.982;2022-07-29T02:33:30;15.40;99.90
6520;DHT22;3293;51.690;5.982;2022-07-29T02:38:32;15.30;99.90
6520;DHT22;3293;51.690;5.982;2022-07-29T02:43:56;15.10;99.90
6520;DHT22;3293;51.690;5.982;2022-07-29T02:49:07;14.90;99.90
6520;DHT22;3293;51.690;5.982;2022-07-29T02:54:11;14.90;99.90
6520;DHT22;3293;51.690;5.982;2022-07-29T02:59:16;14.80;99.90
6520;DHT22;3293;51.690;5.982;2022-07-29T03:04:19;14.60;99.90
6520;DHT22;3293;51.690;5.982;2022-07-29T03:09:20;14.50;99.90
6520;DHT22;3293;51.690;5.982;2022-07-29T03:14:21;14.40;99.90
6520;DHT22;3293;51.690;5.982;2022-07-29T03:19:23;14.40;99.90
6520;DHT22;3293;51.690;5.982;2022-07-29T03:29:26;14.40;99.90
6520;DHT22;3293;51.690;5.982;2022-07-29T03:34:27;14.30;99.90
6520;DHT22;3293;51.690;5.982;2022-07-29T03:39:29;14.30;99.90
6520;DHT22;3293;51.690;5.982;2022-07-29T03:44:31;14.30;99.90
6520;DHT22;3293;51.690;5.982;2022-07-29T03:49:32;14.30;99.90
6520;DHT22;3293;51.690;5.982;2022-07-29T03:54:34;14.20;99.90
6520;DHT22;3293;51.690;5.982;2022-07-29T03:59:34;14.30;99.90
6520;DHT22;3293;51.690;5.982;2022-07-29T04:04:35;14.30;99.90
6520;DHT22;3293;51.690;5.982;2022-07-29T04:09:35;14.30;99.90
6520;DHT22;3293;51.690;5.982;2022-07-29T04:14:35;14.20;99.90
6520;DHT22;3293;51.690;5.982;2022-07-29T04:19:35;14.30;99.90
6520;DHT22;3293;51.690;5.982;2022-07-29T04:24:35;14.40;99.90
6520;DHT22;3293;51.690;5.982;2022-07-29T04:29:35;14.40;99.90
6520;DHT22;3293;51.690;5.982;2022-07-29T04:34:35;14.40;99.90
6520;DHT22;3293;51.690;5.982;2022-07-29T04:39:35;14.50;99.90
6520;DHT22;3293;51.690;5.982;2022-07-29T04:44:35;14.40;99.90
6520;DHT22;3293;51.690;5.982;2022-07-29T04:49:37;14.50;99.90
6520;DHT22;3293;51.690;5.982;2022-07-29T04:54:37;14.40;99.90
6520;DHT22;3293;51.690;5.982;2022-07-29T04:59:37;14.40;99.90
6520;DHT22;3293;51.690;5.982;2022-07-29T05:04:37;14.50;99.90
6520;DHT22;3293;51.690;5.982;2022-07-29T05:09:37;14.40;99.90
6520;DHT22;3293;51.690;5.982;2022-07-29T05:14:37;14.40;99.90
6520;DHT22;3293;51.690;5.982;2022-07-29T05:19:37;14.40;99.90
6520;DHT22;3293;51.690;5.982;2022-07-29T05:24:37;14.50;99.90
6520;DHT22;3293;51.690;5.982;2022-07-29T05:29:37;14.60;99.90
6520;DHT22;3293;51.690;5.982;2022-07-29T05:34:37;14.70;99.90
6520;DHT22;3293;51.690;5.982;2022-07-29T05:39:37;14.60;99.90
6520;DHT22;3293;51.690;5.982;2022-07-29T05:44:38;14.60;99.90
6520;DHT22;3293;51.690;5.982;2022-07-29T05:49:38;14.60;99.90
6520;DHT22;3293;51.690;5.982;2022-07-29T05:54:38;14.70;99.90
6520;DHT22;3293;51.690;5.982;2022-07-29T05:59:38;14.90;99.90
6520;DHT22;3293;51.690;5.982;2022-07-29T06:04:38;15.00;99.90
6520;DHT22;3293;51.690;5.982;2022-07-29T06:09:38;15.30;99.90
6520;DHT22;3293;51.690;5.982;2022-07-29T06:14:38;15.40;99.90
6520;DHT22;3293;51.690;5.982;2022-07-29T06:19:38;15.40;99.90
6520;DHT22;3293;51.690;5.982;2022-07-29T06:24:38;15.40;99.90
6520;DHT22;3293;51.690;5.982;2022-07-29T06:29:41;15.30;99.90
6520;DHT22;3293;51.690;5.982;2022-07-29T06:34:41;15.30;99.90
6520;DHT22;3293;51.690;5.982;2022-07-29T06:39:40;15.30;99.90
6520;DHT22;3293;51.690;5.982;2022-07-29T06:44:40;15.30;99.90
6520;DHT22;3293;51.690;5.982;2022-07-29T06:49:41;15.30;99.90
6520;DHT22;3293;51.690;5.982;2022-07-29T06:54:41;15.30;99.90
6520;DHT22;3293;51.690;5.982;2022-07-29T06:59:47;15.30;99.90
6520;DHT22;3293;51.690;5.982;2022-07-29T07:04:47;15.30;99.90
6520;DHT22;3293;51.690;5.982;2022-07-29T07:09:47;15.20;99.90
6520;DHT22;3293;51.690;5.982;2022-07-29T07:14:47;15.20;99.90
6520;DHT22;3293;51.690;5.982;2022-07-29T07:19:47;15.10;99.90
6520;DHT22;3293;51.690;5.982;2022-07-29T07:24:47;15.10;99.90
6520;DHT22;3293;51.690;5.982;2022-07-29T07:29:47;15.20;99.90
6520;DHT22;3293;51.690;5.982;2022-07-29T07:34:47;15.20;99.90
6520;DHT22;3293;51.690;5.982;2022-07-29T07:39:48;15.20;99.90
6520;DHT22;3293;51.690;5.982;2022-07-29T07:44:48;15.20;99.90
6520;DHT22;3293;51.690;5.982;2022-07-29T07:49:51;15.40;99.90
6520;DHT22;3293;51.690;5.982;2022-07-29T07:54:51;15.60;99.90
6520;DHT22;3293;51.690;5.982;2022-07-29T07:59:52;15.70;99.90
6520;DHT22;3293;51.690;5.982;2022-07-29T08:04:52;15.70;99.90
6520;DHT22;3293;51.690;5.982;2022-07-29T08:09:52;15.80;99.90
6520;DHT22;3293;51.690;5.982;2022-07-29T08:14:52;15.80;99.90
6520;DHT22;3293;51.690;5.982;2022-07-29T08:19:52;15.80;99.90
6520;DHT22;3293;51.690;5.982;2022-07-29T08:24:52;16.00;99.90
6520;DHT22;3293;51.690;5.982;2022-07-29T08:29:53;16.20;99.90
6520;DHT22;3293;51.690;5.982;2022-07-29T08:34:55;16.70;99.90
6520;DHT22;3293;51.690;5.982;2022-07-29T08:39:55;17.50;99.90
6520;DHT22;3293;51.690;5.982;2022-07-29T08:44:56;19.20;99.90
6520;DHT22;3293;51.690;5.982;2022-07-29T08:49:57;21.00;99.90
6520;DHT22;3293;51.690;5.982;2022-07-29T08:54:58;21.60;97.80
6520;DHT22;3293;51.690;5.982;2022-07-29T09:00:00;21.80;96.10
6520;DHT22;3293;51.690;5.982;2022-07-29T09:05:01;22.30;91.30
6520;DHT22;3293;51.690;5.982;2022-07-29T09:10:04;23.10;90.20
6520;DHT22;3293;51.690;5.982;2022-07-29T09:15:04;23.20;87.80
6520;DHT22;3293;51.690;5.982;2022-07-29T09:20:12;23.90;83.20
6520;DHT22;3293;51.690;5.982;2022-07-29T09:25:12;25.70;73.80
6520;DHT22;3293;51.690;5.982;2022-07-29T09:30:14;26.40;64.90
6520;DHT22;3293;51.690;5.982;2022-07-29T09:35:22;27.80;57.30
6520;DHT22;3293;51.690;5.982;2022-07-29T09:40:28;28.60;53.20
6520;DHT22;3293;51.690;5.982;2022-07-29T09:45:33;29.10;47.70
6520;DHT22;3293;51.690;5.982;2022-07-29T09:50:41;28.00;49.50
6520;DHT22;3293;51.690;5.982;2022-07-29T09:55:52;26.90;58.40
6520;DHT22;3293;51.690;5.982;2022-07-29T10:00:53;26.70;56.80
6520;DHT22;3293;51.690;5.982;2022-07-29T10:06:08;26.10;63.10
6520;DHT22;3293;51.690;5.982;2022-07-29T10:11:16;25.70;63.30
6520;DHT22;3293;51.690;5.982;2022-07-29T10:16:17;25.30;63.10
6520;DHT22;3293;51.690;5.982;2022-07-29T10:21:17;24.40;69.50
6520;DHT22;3293;51.690;5.982;2022-07-29T10:26:19;23.70;75.20
6520;DHT22;3293;51.690;5.982;2022-07-29T10:31:48;23.90;81.50
6520;DHT22;3293;51.690;5.982;2022-07-29T10:36:58;24.00;81.50
6520;DHT22;3293;51.690;5.982;2022-07-29T10:42:11;23.60;78.80
6520;DHT22;3293;51.690;5.982;2022-07-29T10:47:26;23.30;81.20
6520;DHT22;3293;51.690;5.982;2022-07-29T10:52:55;23.60;83.50
6520;DHT22;3293;51.690;5.982;2022-07-29T10:58:33;23.90;84.10
6520;DHT22;3293;51.690;5.982;2022-07-29T11:03:47;23.90;76.30
6520;DHT22;3293;51.690;5.982;2022-07-29T11:09:17;23.70;80.00
6520;DHT22;3293;51.690;5.982;2022-07-29T11:14:54;23.90;78.40
6520;DHT22;3293;51.690;5.982;2022-07-29T11:19:38;24.00;68.00
6520;DHT22;3293;51.690;5.982;2022-07-29T11:24:41;24.00;66.10
6520;DHT22;3293;51.690;5.982;2022-07-29T11:29:58;24.00;60.60
6520;DHT22;3293;51.690;5.982;2022-07-29T11:35:22;24.00;66.70
6520;DHT22;3293;51.690;5.982;2022-07-29T11:40:23;24.20;64.00
6520;DHT22;3293;51.690;5.982;2022-07-29T11:45:24;24.30;61.40
6520;DHT22;3293;51.690;5.982;2022-07-29T11:50:32;24.40;64.30
6520;DHT22;3293;51.690;5.982;2022-07-29T11:55:32;24.30;59.30
6520;DHT22;3293;51.690;5.982;2022-07-29T12:00:40;24.20;62.00
6520;DHT22;3293;51.690;5.982;2022-07-29T12:05:42;24.30;59.40
6520;DHT22;3293;51.690;5.982;2022-07-29T12:10:45;24.50;62.50
6520;DHT22;3293;51.690;5.982;2022-07-29T12:15:56;24.70;63.20
6520;DHT22;3293;51.690;5.982;2022-07-29T12:20:59;24.80;62.50
6520;DHT22;3293;51.690;5.982;2022-07-29T12:25:59;24.90;63.20
6520;DHT22;3293;51.690;5.982;2022-07-29T12:31:00;24.90;62.40
6520;DHT22;3293;51.690;5.982;2022-07-29T12:36:02;25.00;61.80
6520;DHT22;3293;51.690;5.982;2022-07-29T12:41:03;24.90;63.30
6520;DHT22;3293;51.690;5.982;2022-07-29T12:46:14;25.00;64.20
6520;DHT22;3293;51.690;5.982;2022-07-29T12:51:14;25.20;59.60
6520;DHT22;3293;51.690;5.982;2022-07-29T12:56:16;25.30;58.90
6520;DHT22;3293;51.690;5.982;2022-07-29T13:01:17;25.40;57.60
6520;DHT22;3293;51.690;5.982;2022-07-29T13:11:45;25.70;56.10
6520;DHT22;3293;51.690;5.982;2022-07-29T13:17:06;26.10;53.80
6520;DHT22;3293;51.690;5.982;2022-07-29T13:22:15;26.30;53.90
6520;DHT22;3293;51.690;5.982;2022-07-29T13:27:16;26.70;53.60
6520;DHT22;3293;51.690;5.982;2022-07-29T13:32:17;26.70;50.20
6520;DHT22;3293;51.690;5.982;2022-07-29T13:37:18;26.50;51.80
6520;DHT22;3293;51.690;5.982;2022-07-29T13:42:19;26.40;49.10
6520;DHT22;3293;51.690;5.982;2022-07-29T13:47:20;26.20;50.50
6520;DHT22;3293;51.690;5.982;2022-07-29T13:52:20;26.20;52.20
6520;DHT22;3293;51.690;5.982;2022-07-29T13:57:20;26.00;52.60
6520;DHT22;3293;51.690;5.982;2022-07-29T14:02:20;25.80;51.70
6520;DHT22;3293;51.690;5.982;2022-07-29T14:07:20;25.50;53.40
6520;DHT22;3293;51.690;5.982;2022-07-29T14:12:20;25.40;54.40
6520;DHT22;3293;51.690;5.982;2022-07-29T14:17:20;25.30;55.30
6520;DHT22;3293;51.690;5.982;2022-07-29T14:22:20;25.20;56.10
6520;DHT22;3293;51.690;5.982;2022-07-29T14:27:20;25.30;56.80
6520;DHT22;3293;51.690;5.982;2022-07-29T14:32:20;25.40;54.80
6520;DHT22;3293;51.690;5.982;2022-07-29T14:37:20;25.60;55.00
6520;DHT22;3293;51.690;5.982;2022-07-29T14:42:20;25.60;53.80
6520;DHT22;3293;51.690;5.982;2022-07-29T14:47:20;25.50;54.40
6520;DHT22;3293;51.690;5.982;2022-07-29T14:52:21;25.40;55.90
6520;DHT22;3293;51.690;5.982;2022-07-29T14:57:21;25.30;54.00
6520;DHT22;3293;51.690;5.982;2022-07-29T15:02:21;25.30;54.50
6520;DHT22;3293;51.690;5.982;2022-07-29T15:07:21;25.30;55.50
6520;DHT22;3293;51.690;5.982;2022-07-29T15:12:21;25.30;54.90
6520;DHT22;3293;51.690;5.982;2022-07-29T15:17:20;25.30;54.30
6520;DHT22;3293;51.690;5.982;2022-07-29T15:22:20;25.20;53.90
6520;DHT22;3293;51.690;5.982;2022-07-29T15:27:20;25.20;53.10
6520;DHT22;3293;51.690;5.982;2022-07-29T15:32:20;25.10;51.60
6520;DHT22;3293;51.690;5.982;2022-07-29T15:37:20;25.30;51.40
6520;DHT22;3293;51.690;5.982;2022-07-29T15:42:20;25.20;50.10
6520;DHT22;3293;51.690;5.982;2022-07-29T15:47:20;25.00;51.10
6520;DHT22;3293;51.690;5.982;2022-07-29T15:52:20;25.00;52.50
6520;DHT22;3293;51.690;5.982;2022-07-29T15:57:21;25.00;53.20
6520;DHT22;3293;51.690;5.982;2022-07-29T16:02:21;25.10;53.30
6520;DHT22;3293;51.690;5.982;2022-07-29T16:07:21;25.20;52.00
6520;DHT22;3293;51.690;5.982;2022-07-29T16:12:21;25.40;51.50
6520;DHT22;3293;51.690;5.982;2022-07-29T16:17:21;25.30;51.30
6520;DHT22;3293;51.690;5.982;2022-07-29T16:22:21;25.40;51.10
6520;DHT22;3293;51.690;5.982;2022-07-29T16:27:20;25.40;51.90
6520;DHT22;3293;51.690;5.982;2022-07-29T16:32:25;25.30;53.00
6520;DHT22;3293;51.690;5.982;2022-07-29T16:37:25;24.90;52.60
6520;DHT22;3293;51.690;5.982;2022-07-29T16:42:25;24.90;52.80
6520;DHT22;3293;51.690;5.982;2022-07-29T16:47:25;24.90;53.40
6520;DHT22;3293;51.690;5.982;2022-07-29T16:52:25;24.80;55.10
6520;DHT22;3293;51.690;5.982;2022-07-29T16:57:25;24.70;55.10
6520;DHT22;3293;51.690;5.982;2022-07-29T17:02:25;24.50;56.10
6520;DHT22;3293;51.690;5.982;2022-07-29T17:07:25;24.40;56.10
6520;DHT22;3293;51.690;5.982;2022-07-29T17:12:25;24.30;56.80
6520;DHT22;3293;51.690;5.982;2022-07-29T17:17:26;24.40;58.00
6520;DHT22;3293;51.690;5.982;2022-07-29T17:22:26;24.40;58.50
6520;DHT22;3293;51.690;5.982;2022-07-29T17:27:26;24.30;59.20
6520;DHT22;3293;51.690;5.982;2022-07-29T17:32:26;24.30;58.50
6520;DHT22;3293;51.690;5.982;2022-07-29T17:37:26;24.10;59.20
6520;DHT22;3293;51.690;5.982;2022-07-29T17:42:27;24.10;60.00
6520;DHT22;3293;51.690;5.982;2022-07-29T17:47:27;24.10;60.20
6520;DHT22;3293;51.690;5.982;2022-07-29T17:52:27;24.20;59.50
6520;DHT22;3293;51.690;5.982;2022-07-29T17:57:27;24.30;60.60
6520;DHT22;3293;51.690;5.982;2022-07-29T18:02:27;24.50;58.70
6520;DHT22;3293;51.690;5.982;2022-07-29T18:07:27;24.70;59.60
6520;DHT22;3293;51.690;5.982;2022-07-29T18:12:27;24.70;58.70
6520;DHT22;3293;51.690;5.982;2022-07-29T18:17:27;24.70;60.00
6520;DHT22;3293;51.690;5.982;2022-07-29T18:22:27;24.70;59.40
6520;DHT22;3293;51.690;5.982;2022-07-29T18:27:27;24.80;60.20
6520;DHT22;3293;51.690;5.982;2022-07-29T18:32:27;24.70;59.80
6520;DHT22;3293;51.690;5.982;2022-07-29T18:37:28;24.70;58.50
6520;DHT22;3293;51.690;5.982;2022-07-29T18:42:27;24.60;60.10
6520;DHT22;3293;51.690;5.982;2022-07-29T18:47:28;24.60;60.10
6520;DHT22;3293;51.690;5.982;2022-07-29T18:52:28;24.60;61.00
6520;DHT22;3293;51.690;5.982;2022-07-29T18:57:28;24.40;62.70
6520;DHT22;3293;51.690;5.982;2022-07-29T19:02:28;24.10;64.70
6520;DHT22;3293;51.690;5.982;2022-07-29T19:07:28;23.80;65.80
6520;DHT22;3293;51.690;5.982;2022-07-29T19:12:28;23.50;68.80
6520;DHT22;3293;51.690;5.982;2022-07-29T19:17:28;23.30;70.50
6520;DHT22;3293;51.690;5.982;2022-07-29T19:22:28;23.00;73.40
6520;DHT22;3293;51.690;5.982;2022-07-29T19:27:28;22.80;75.30
6520;DHT22;3293;51.690;5.982;2022-07-29T19:32:28;22.60;76.80
6520;DHT22;3293;51.690;5.982;2022-07-29T19:37:28;22.40;78.00
6520;DHT22;3293;51.690;5.982;2022-07-29T19:42:28;22.20;80.30
6520;DHT22;3293;51.690;5.982;2022-07-29T19:47:28;22.00;81.90
6520;DHT22;3293;51.690;5.982;2022-07-29T19:52:28;21.70;84.40
6520;DHT22;3293;51.690;5.982;2022-07-29T19:57:28;21.40;87.10
6520;DHT22;3293;51.690;5.982;2022-07-29T20:02:28;21.20;87.80
6520;DHT22;3293;51.690;5.982;2022-07-29T20:07:28;21.10;88.90
6520;DHT22;3293;51.690;5.982;2022-07-29T20:12:28;21.00;90.40
6520;DHT22;3293;51.690;5.982;2022-07-29T20:17:28;20.80;90.90
6520;DHT22;3293;51.690;5.982;2022-07-29T20:22:29;20.80;91.90
6520;DHT22;3293;51.690;5.982;2022-07-29T20:27:29;20.70;92.30
6520;DHT22;3293;51.690;5.982;2022-07-29T20:32:29;20.60;92.00
6520;DHT22;3293;51.690;5.982;2022-07-29T20:37:29;20.50;92.10
6520;DHT22;3293;51.690;5.982;2022-07-29T20:42:29;20.40;93.30
6520;DHT22;3293;51.690;5.982;2022-07-29T20:47:29;20.20;94.60
6520;DHT22;3293;51.690;5.982;2022-07-29T20:52:29;20.10;94.10
6520;DHT22;3293;51.690;5.982;2022-07-29T20:57:30;20.00;94.80
6520;DHT22;3293;51.690;5.982;2022-07-29T21:02:29;19.80;96.90
6520;DHT22;3293;51.690;5.982;2022-07-29T21:07:30;19.60;97.60
6520;DHT22;3293;51.690;5.982;2022-07-29T21:12:30;19.50;99.10
6520;DHT22;3293;51.690;5.982;2022-07-29T21:17:33;19.30;99.40
6520;DHT22;3293;51.690;5.982;2022-07-29T21:22:34;19.20;99.70
6520;DHT22;3293;51.690;5.982;2022-07-29T21:27:35;19.00;99.90
6520;DHT22;3293;51.690;5.982;2022-07-29T21:32:54;18.90;99.90
6520;DHT22;3293;51.690;5.982;2022-07-29T21:37:53;18.80;99.90
6520;DHT22;3293;51.690;5.982;2022-07-29T21:42:53;18.70;99.90
6520;DHT22;3293;51.690;5.982;2022-07-29T21:47:54;18.50;99.90
6520;DHT22;3293;51.690;5.982;2022-07-29T21:52:54;18.50;99.90
6520;DHT22;3293;51.690;5.982;2022-07-29T21:57:54;18.30;99.90
6520;DHT22;3293;51.690;5.982;2022-07-29T22:02:54;18.30;99.90
6520;DHT22;3293;51.690;5.982;2022-07-29T22:07:55;18.20;99.90
6520;DHT22;3293;51.690;5.982;2022-07-29T22:12:57;18.20;99.90
6520;DHT22;3293;51.690;5.982;2022-07-29T22:17:58;18.10;99.90
6520;DHT22;3293;51.690;5.982;2022-07-29T22:22:58;18.00;99.90
6520;DHT22;3293;51.690;5.982;2022-07-29T22:27:58;18.00;99.90
6520;DHT22;3293;51.690;5.982;2022-07-29T22:32:58;17.90;99.90
6520;DHT22;3293;51.690;5.982;2022-07-29T22:37:57;17.80;99.90
6520;DHT22;3293;51.690;5.982;2022-07-29T22:42:57;17.70;99.90
6520;DHT22;3293;51.690;5.982;2022-07-29T22:47:57;17.70;99.90
6520;DHT22;3293;51.690;5.982;2022-07-29T22:52:57;17.60;99.90
6520;DHT22;3293;51.690;5.982;2022-07-29T22:57:57;17.50;99.90
6520;DHT22;3293;51.690;5.982;2022-07-29T23:02:57;17.50;99.90
6520;DHT22;3293;51.690;5.982;2022-07-29T23:07:57;17.40;99.90
6520;DHT22;3293;51.690;5.982;2022-07-29T23:12:57;17.40;99.90
6520;DHT22;3293;51.690;5.982;2022-07-29T23:17:57;17.40;99.90
6520;DHT22;3293;51.690;5.982;2022-07-29T23:22:57;17.30;99.90
6520;DHT22;3293;51.690;5.982;2022-07-29T23:27:57;17.20;99.90
6520;DHT22;3293;51.690;5.982;2022-07-29T23:32:57;17.10;99.90
6520;DHT22;3293;51.690;5.982;2022-07-29T23:37:57;17.10;99.90
6520;DHT22;3293;51.690;5.982;2022-07-29T23:42:57;17.00;99.90
6520;DHT22;3293;51.690;5.982;2022-07-29T23:47:57;17.00;99.90
6520;DHT22;3293;51.690;5.982;2022-07-29T23:52:57;17.00;99.90
6520;DHT22;3293;51.690;5.982;2022-07-29T23:57:57;17.00;99.90
